Port Hawkesbury, Canada
Current Conditions -  °F | °C
As of 5:00 AM on Wednesday 22 Oct 2014 (Local Time) from CYPD Reporting Station
Overcast Overcast  
Wind Chill: 36°   Ceiling: 15000
Heat Index: 41°   Visibility: 9mi
Dew Point: 37°   Wind: 7mph
Humidity: 87%   Direction: 30°NNE
Pressure: 30.33"   Gusts: NA
Location:  45.62°N, 61.35°W
Report Text: CYPD 220800Z AUTO 03006KT 9SM OVC150 05/03 A3033 RMK SLP273
Loading
Personal Weather Stations






























Interactive Weather Map
Tropical Storm Tracking
New forecast layout! Learn more

10-Day Weather Forecast

Advertisements
Track Severe Weather on mobile